createdAt,value
2018-08-13T00:02:39.459Z,20.10
2018-08-13T00:07:42.657Z,20.00
2018-08-13T00:12:45.685Z,19.90
2018-08-13T00:17:48.828Z,19.80
2018-08-13T00:22:51.835Z,19.70
2018-08-13T00:27:54.945Z,19.70
2018-08-13T00:32:58.057Z,19.70
2018-08-13T00:38:01.055Z,19.60
2018-08-13T00:43:04.379Z,19.60
2018-08-13T00:48:07.419Z,19.50
2018-08-13T00:53:10.459Z,19.50
2018-08-13T00:58:13.705Z,19.40
2018-08-13T01:03:16.744Z,19.30
2018-08-13T01:08:19.755Z,19.30
2018-08-13T01:13:24.116Z,19.30
2018-08-13T01:18:27.376Z,19.20
2018-08-13T01:23:30.583Z,19.20
2018-08-13T01:28:33.599Z,19.30
2018-08-13T01:33:36.634Z,19.30
2018-08-13T01:38:39.643Z,19.30
2018-08-13T01:43:42.664Z,19.20
2018-08-13T01:48:45.727Z,19.10
2018-08-13T01:53:48.847Z,19.10
2018-08-13T01:58:51.860Z,19.00
2018-08-13T02:03:54.887Z,18.90
2018-08-13T02:08:57.987Z,18.80
2018-08-13T02:14:01.088Z,18.80
2018-08-13T02:19:04.098Z,18.70
2018-08-13T02:24:07.174Z,18.70
2018-08-13T02:29:10.183Z,18.60
2018-08-13T02:34:13.207Z,18.60
2018-08-13T02:39:16.280Z,18.50
2018-08-13T02:44:19.300Z,18.50
2018-08-13T02:49:22.320Z,18.40
2018-08-13T02:54:25.392Z,18.40
2018-08-13T02:59:28.415Z,18.30
2018-08-13T03:04:31.440Z,18.30
2018-08-13T03:09:34.449Z,18.20
2018-08-13T03:14:37.476Z,18.10
2018-08-13T03:19:40.533Z,18.10
2018-08-13T03:24:43.623Z,18.10
2018-08-13T03:29:46.645Z,18.00
2018-08-13T03:34:49.684Z,18.00
2018-08-13T03:39:52.701Z,18.00
2018-08-13T03:44:55.761Z,17.90
2018-08-13T03:49:58.770Z,17.90
2018-08-13T03:55:01.798Z,17.90
2018-08-13T04:00:08.656Z,17.80
2018-08-13T04:05:12.716Z,17.80
2018-08-13T04:10:15.769Z,17.80
2018-08-13T04:15:18.801Z,17.70
2018-08-13T04:20:21.811Z,17.80
2018-08-13T04:25:24.836Z,17.80
2018-08-13T04:30:27.870Z,17.90
2018-08-13T04:35:30.904Z,17.90
2018-08-13T04:40:33.920Z,18.00
2018-08-13T04:45:36.962Z,18.00
2018-08-13T04:50:40.005Z,18.10
2018-08-13T04:55:43.036Z,18.20
2018-08-13T05:00:46.050Z,18.30
2018-08-13T05:05:49.168Z,18.40
2018-08-13T05:10:52.174Z,18.60
2018-08-13T05:15:55.278Z,18.80
2018-08-13T05:20:58.292Z,18.90
2018-08-13T05:26:01.391Z,19.00
2018-08-13T05:31:04.450Z,19.20
2018-08-13T05:36:07.495Z,19.30
2018-08-13T05:41:10.616Z,19.60
2018-08-13T05:46:13.657Z,19.80
2018-08-13T05:51:16.727Z,19.90
2018-08-13T05:56:19.832Z,20.20
2018-08-13T06:01:22.866Z,20.40
2018-08-13T06:06:25.887Z,20.60
2018-08-13T06:11:28.912Z,20.80
2018-08-13T06:16:32.040Z,21.00
2018-08-13T06:21:35.158Z,21.10
2018-08-13T06:26:38.251Z,21.40
2018-08-13T06:31:41.310Z,21.60
2018-08-13T06:36:44.364Z,21.70
2018-08-13T06:41:47.363Z,21.80
2018-08-13T06:46:50.379Z,22.20
2018-08-13T06:51:53.428Z,22.20
2018-08-13T06:56:56.475Z,22.50
2018-08-13T07:01:59.492Z,22.40
2018-08-13T07:07:02.792Z,22.50
2018-08-13T07:12:05.855Z,22.70
2018-08-13T07:17:08.885Z,22.90
2018-08-13T07:22:11.930Z,23.00
2018-08-13T07:27:15.006Z,23.10
2018-08-13T07:32:18.028Z,23.50
2018-08-13T07:37:21.080Z,23.60
2018-08-13T07:42:24.161Z,23.80
2018-08-13T07:47:27.344Z,24.20
2018-08-13T07:52:30.418Z,24.40
2018-08-13T07:57:33.661Z,24.40
2018-08-13T08:02:36.756Z,24.70
2018-08-13T08:07:39.940Z,25.00
2018-08-13T08:12:43.158Z,25.20
2018-08-13T08:17:46.187Z,25.30
2018-08-13T08:22:49.290Z,25.10
2018-08-13T08:27:52.315Z,25.60
2018-08-13T08:32:55.363Z,25.90
2018-08-13T08:37:58.409Z,26.20
2018-08-13T08:43:01.693Z,26.50
2018-08-13T08:48:06.299Z,26.50
2018-08-13T08:53:09.354Z,27.00
2018-08-13T08:58:13.239Z,27.10
2018-08-13T09:03:16.300Z,27.20
2018-08-13T09:08:19.319Z,27.40
2018-08-13T09:13:22.363Z,27.60
2018-08-13T09:18:36.863Z,28.40
2018-08-13T09:23:51.348Z,29.40
2018-08-13T09:29:05.952Z,29.80
2018-08-13T09:34:20.646Z,30.20
2018-08-13T09:39:23.900Z,31.10
2018-08-13T09:44:26.914Z,32.00
2018-08-13T09:49:29.927Z,31.80
2018-08-13T09:54:33.024Z,31.70
2018-08-13T09:59:36.071Z,31.20
2018-08-13T10:04:39.111Z,31.20
2018-08-13T10:09:42.115Z,31.30
2018-08-13T10:14:45.118Z,31.30
2018-08-13T10:19:48.414Z,32.10
2018-08-13T10:24:51.511Z,32.20
2018-08-13T10:29:54.552Z,32.10
2018-08-13T10:34:57.683Z,33.10
2018-08-13T10:40:00.703Z,33.00
2018-08-13T10:45:04.262Z,33.20
2018-08-13T10:50:08.982Z,32.70
2018-08-13T10:55:13.210Z,32.50
2018-08-13T11:00:16.712Z,32.30
2018-08-13T11:05:19.760Z,31.80
2018-08-13T11:10:22.862Z,32.30
2018-08-13T11:15:25.921Z,32.50
2018-08-13T11:20:28.931Z,32.50
2018-08-13T11:25:32.064Z,32.40
2018-08-13T11:30:35.062Z,33.10
2018-08-13T11:35:38.139Z,33.70
2018-08-13T11:40:41.207Z,34.10
2018-08-13T11:45:44.303Z,33.30
2018-08-13T11:50:47.434Z,34.10
2018-08-13T11:55:50.567Z,34.30
2018-08-13T12:00:53.634Z,33.20
2018-08-13T12:05:56.747Z,32.90
2018-08-13T12:10:59.943Z,33.30
2018-08-13T12:16:03.234Z,33.00
2018-08-13T12:21:06.312Z,33.10
2018-08-13T12:26:09.444Z,32.80
2018-08-13T12:31:12.631Z,33.10
2018-08-13T12:36:15.793Z,33.10
2018-08-13T12:41:18.840Z,33.50
2018-08-13T12:46:21.907Z,33.10
2018-08-13T12:51:24.939Z,32.80
2018-08-13T12:56:27.968Z,32.70
2018-08-13T13:01:31.517Z,32.40
2018-08-13T13:06:34.719Z,32.30
2018-08-13T13:11:37.993Z,32.10
2018-08-13T13:16:41.024Z,31.90
2018-08-13T13:21:44.175Z,31.60
2018-08-13T13:26:47.208Z,31.70
2018-08-13T13:31:50.315Z,31.80
2018-08-13T13:36:53.374Z,31.60
2018-08-13T13:41:56.382Z,31.50
2018-08-13T13:46:59.419Z,31.40
2018-08-13T13:52:02.581Z,31.30
2018-08-13T13:57:05.593Z,31.20
2018-08-13T14:02:09.873Z,31.10
2018-08-13T14:07:12.924Z,30.90
2018-08-13T14:12:15.955Z,30.70
2018-08-13T14:17:19.000Z,30.80
2018-08-13T14:22:22.067Z,30.80
2018-08-13T14:27:25.125Z,30.50
2018-08-13T14:32:28.175Z,30.40
2018-08-13T14:37:31.275Z,30.20
2018-08-13T14:42:34.305Z,29.90
2018-08-13T14:47:37.471Z,29.80
2018-08-13T14:52:41.927Z,29.70
2018-08-13T14:57:45.067Z,29.50
2018-08-13T15:02:48.527Z,29.30
2018-08-13T15:07:51.578Z,29.00
2018-08-13T15:12:55.020Z,28.60
2018-08-13T15:17:58.151Z,28.40
2018-08-13T15:23:01.188Z,28.20
2018-08-13T15:28:04.308Z,27.80
2018-08-13T15:33:07.245Z,27.70
2018-08-13T15:38:10.276Z,27.60
2018-08-13T15:43:13.314Z,27.40
2018-08-13T15:48:16.359Z,27.20
2018-08-13T15:53:19.421Z,27.10
2018-08-13T15:58:22.443Z,26.90
2018-08-13T16:03:25.476Z,26.70
2018-08-13T16:08:28.554Z,26.60
2018-08-13T16:13:31.774Z,26.60
2018-08-13T16:18:35.066Z,26.60
2018-08-13T16:23:38.285Z,26.40
2018-08-13T16:28:41.543Z,26.30
2018-08-13T16:33:44.617Z,26.30
2018-08-13T16:38:47.704Z,26.20
2018-08-13T16:43:50.724Z,26.30
2018-08-13T16:48:53.760Z,26.10
2018-08-13T16:53:56.816Z,25.90
2018-08-13T16:58:59.864Z,25.80
2018-08-13T17:04:02.916Z,25.60
2018-08-13T17:09:08.214Z,25.50
2018-08-13T17:14:13.809Z,25.30
2018-08-13T17:19:16.752Z,25.40
2018-08-13T17:24:19.802Z,25.60
2018-08-13T17:29:22.831Z,25.90
2018-08-13T17:34:25.872Z,26.10
2018-08-13T17:39:28.916Z,26.10
2018-08-13T17:44:32.400Z,26.10
2018-08-13T17:49:35.536Z,26.10
2018-08-13T17:54:38.595Z,25.90
2018-08-13T17:59:41.639Z,25.90
2018-08-13T18:04:45.440Z,25.80
2018-08-13T18:09:48.548Z,25.50
2018-08-13T18:14:51.625Z,25.10
2018-08-13T18:19:54.894Z,25.00
2018-08-13T18:24:58.023Z,24.90
2018-08-13T18:30:01.118Z,24.80
2018-08-13T18:35:04.520Z,24.60
2018-08-13T18:40:19.125Z,24.60
2018-08-13T18:45:22.225Z,24.50
2018-08-13T18:50:25.257Z,24.30
2018-08-13T18:55:28.391Z,24.10
2018-08-13T19:00:31.632Z,24.00
2018-08-13T19:05:35.068Z,24.00
2018-08-13T19:10:38.152Z,24.10
2018-08-13T19:15:41.264Z,24.10
2018-08-13T19:20:44.325Z,24.10
2018-08-13T19:25:47.477Z,24.00
2018-08-13T19:30:50.521Z,23.90
2018-08-13T19:35:53.699Z,23.80
2018-08-13T19:40:56.740Z,23.80
2018-08-13T19:45:59.906Z,23.90
2018-08-13T19:51:02.973Z,23.70
2018-08-13T19:56:06.295Z,23.60
2018-08-13T20:01:09.340Z,23.40
2018-08-13T20:06:12.411Z,23.30
2018-08-13T20:11:15.463Z,23.50
2018-08-13T20:16:18.531Z,23.60
2018-08-13T20:21:21.544Z,23.60
2018-08-13T20:26:24.625Z,23.60
2018-08-13T20:31:27.673Z,23.40
2018-08-13T20:36:30.989Z,23.20
2018-08-13T20:41:34.040Z,23.00
2018-08-13T20:46:37.270Z,22.90
2018-08-13T20:51:40.411Z,22.90
2018-08-13T20:56:43.468Z,22.70
2018-08-13T21:01:46.572Z,22.70
2018-08-13T21:06:49.612Z,22.90
2018-08-13T21:11:52.643Z,23.00
2018-08-13T21:16:55.807Z,22.80
2018-08-13T21:21:58.834Z,22.70
2018-08-13T21:27:01.934Z,22.60
2018-08-13T21:32:04.956Z,22.40
2018-08-13T21:37:08.010Z,22.50
2018-08-13T21:42:11.061Z,22.40
2018-08-13T21:47:14.179Z,22.40
2018-08-13T21:52:17.223Z,22.40
2018-08-13T21:57:23.429Z,22.30
2018-08-13T22:02:26.484Z,22.30
2018-08-13T22:07:29.536Z,22.20
2018-08-13T22:12:32.590Z,22.20
2018-08-13T22:17:35.720Z,22.20
2018-08-13T22:22:38.788Z,22.30
2018-08-13T22:27:41.831Z,22.40
2018-08-13T22:32:44.843Z,22.30
2018-08-13T22:37:47.888Z,22.40
2018-08-13T22:42:50.971Z,22.30
2018-08-13T22:47:54.016Z,22.40
2018-08-13T22:52:57.095Z,22.40
2018-08-13T22:58:00.154Z,22.30
2018-08-13T23:03:03.217Z,22.20
2018-08-13T23:08:06.735Z,22.10
2018-08-13T23:13:14.804Z,22.00
2018-08-13T23:18:17.831Z,22.00
2018-08-13T23:23:20.883Z,22.00
2018-08-13T23:28:23.925Z,21.80
2018-08-13T23:33:26.957Z,21.80
2018-08-13T23:38:30.005Z,21.80
2018-08-13T23:43:33.079Z,21.80
2018-08-13T23:48:36.112Z,21.80
2018-08-13T23:53:39.148Z,21.70
2018-08-13T23:58:42.165Z,21.60
